createdAt,value
2022-10-05T00:00:22.358Z,101433.94
2022-10-05T00:02:49.330Z,101430.13
2022-10-05T00:05:31.715Z,101425.25
2022-10-05T00:08:21.330Z,101415.28
2022-10-05T00:10:47.813Z,101415.72
2022-10-05T00:13:19.749Z,101419.16
2022-10-05T00:15:46.775Z,101419.53
2022-10-05T00:18:15.202Z,101410.69
2022-10-05T00:20:42.181Z,101415.59
2022-10-05T00:23:14.111Z,101405.16
2022-10-05T00:25:40.453Z,101405.00
2022-10-05T00:28:14.967Z,101394.34
2022-10-05T00:30:41.351Z,101405.78
2022-10-05T00:33:07.684Z,101412.88
2022-10-05T00:35:34.934Z,101410.38
2022-10-05T00:38:01.797Z,101403.22
2022-10-05T00:40:37.241Z,101395.56
2022-10-05T00:43:15.840Z,101402.47
2022-10-05T00:45:48.891Z,101403.72
2022-10-05T00:48:30.572Z,101405.09
2022-10-05T00:50:59.943Z,101404.94
2022-10-05T00:53:26.773Z,101408.56
2022-10-05T00:55:56.165Z,101405.00
2022-10-05T00:58:31.886Z,101402.69
2022-10-05T01:00:58.510Z,101398.41
2022-10-05T01:03:30.987Z,101393.63
2022-10-05T01:06:06.534Z,101397.34
2022-10-05T01:08:56.275Z,101395.06
2022-10-05T01:11:41.466Z,101401.47
2022-10-05T01:14:07.784Z,101399.50
2022-10-05T01:16:49.941Z,101400.84
2022-10-05T01:19:16.680Z,101399.72
2022-10-05T01:21:48.032Z,101398.06
2022-10-05T01:24:33.219Z,101394.69
2022-10-05T01:26:59.572Z,101398.69
2022-10-05T01:29:44.790Z,101391.66
2022-10-05T01:32:30.025Z,101378.84
2022-10-05T01:35:05.410Z,101373.19
2022-10-05T01:37:40.593Z,101372.28
2022-10-05T01:40:09.756Z,101368.31
2022-10-05T01:42:38.999Z,101370.56
2022-10-05T01:45:14.449Z,101371.72
2022-10-05T01:47:46.185Z,101370.72
2022-10-05T01:50:12.619Z,101366.13
2022-10-05T01:52:59.536Z,101361.63
2022-10-05T01:55:39.212Z,101361.88
2022-10-05T01:58:13.604Z,101364.41
2022-10-05T02:01:04.143Z,101356.41
2022-10-05T02:03:35.588Z,101360.75
2022-10-05T02:06:11.430Z,101354.06
2022-10-05T02:08:43.695Z,101345.63
2022-10-05T02:11:14.752Z,101350.06
2022-10-05T02:13:47.394Z,101350.28
2022-10-05T02:16:18.966Z,101342.81
2022-10-05T02:18:50.461Z,101342.41
2022-10-05T02:21:17.205Z,101352.28
2022-10-05T02:23:46.252Z,101340.28
2022-10-05T02:26:13.533Z,101341.59
2022-10-05T02:28:50.172Z,101339.63
2022-10-05T02:31:22.757Z,101345.84
2022-10-05T02:33:49.278Z,101342.03
2022-10-05T02:36:29.443Z,101343.72
2022-10-05T02:38:55.776Z,101335.38
2022-10-05T02:41:22.405Z,101338.72
2022-10-05T02:43:48.742Z,101338.28
2022-10-05T02:46:18.713Z,101334.84
2022-10-05T02:48:51.283Z,101324.41
2022-10-05T02:51:24.409Z,101338.44
2022-10-05T02:53:56.812Z,101330.25
2022-10-05T02:56:28.653Z,101323.91
2022-10-05T02:59:07.832Z,101324.06
2022-10-05T03:01:37.579Z,101320.34
2022-10-05T03:04:07.274Z,101324.47
2022-10-05T03:06:37.456Z,101325.66
2022-10-05T03:09:05.862Z,101326.94
2022-10-05T03:11:37.150Z,101318.13
2022-10-05T03:14:06.927Z,101312.75
2022-10-05T03:16:56.247Z,101312.31
2022-10-05T03:19:32.454Z,101306.78
2022-10-05T03:22:04.352Z,101314.56
2022-10-05T03:24:51.776Z,101312.75
2022-10-05T03:27:39.852Z,101305.38
2022-10-05T03:30:23.723Z,101305.53
2022-10-05T03:33:07.422Z,101303.69
2022-10-05T03:35:34.103Z,101294.44
2022-10-05T03:38:10.973Z,101301.13
2022-10-05T03:40:41.198Z,101289.22
2022-10-05T03:43:17.151Z,101281.59
2022-10-05T03:46:02.394Z,101275.22
2022-10-05T03:48:32.023Z,101277.19
2022-10-05T03:51:01.447Z,101271.13
2022-10-05T03:53:48.104Z,101276.88
2022-10-05T03:56:19.760Z,101273.84
2022-10-05T03:58:53.409Z,101268.94
2022-10-05T04:01:23.163Z,101273.72
2022-10-05T04:03:52.328Z,101264.59
2022-10-05T04:06:22.204Z,101266.16
2022-10-05T04:08:48.619Z,101265.34
2022-10-05T04:11:26.616Z,101261.34
2022-10-05T04:14:11.078Z,101263.16
2022-10-05T04:16:43.155Z,101265.91
2022-10-05T04:19:16.049Z,101264.94
2022-10-05T04:21:48.151Z,101264.66
2022-10-05T04:24:18.192Z,101269.19
2022-10-05T04:26:57.455Z,101269.06
2022-10-05T04:29:44.731Z,101257.94
2022-10-05T04:32:25.549Z,101269.72
2022-10-05T04:34:52.195Z,101263.31
2022-10-05T04:37:26.257Z,101266.91
2022-10-05T04:39:59.568Z,101265.59
2022-10-05T04:42:34.667Z,101273.44
2022-10-05T04:45:04.028Z,101267.25
2022-10-05T04:47:48.700Z,101264.78
2022-10-05T04:50:15.788Z,101276.38
2022-10-05T04:53:14.712Z,101275.44
2022-10-05T04:55:56.354Z,101272.16
2022-10-05T04:58:28.951Z,101273.94
2022-10-05T05:00:58.405Z,101275.59
2022-10-05T05:03:43.420Z,101271.34
2022-10-05T05:06:18.508Z,101278.06
2022-10-05T05:09:07.367Z,101269.88
2022-10-05T05:11:36.773Z,101273.13
2022-10-05T05:14:19.443Z,101274.03
2022-10-05T05:16:49.336Z,101279.25
2022-10-05T05:19:19.375Z,101269.94
2022-10-05T05:21:57.569Z,101268.66
2022-10-05T05:24:42.290Z,101272.22
2022-10-05T05:27:28.041Z,101272.91
2022-10-05T05:30:03.792Z,101279.94
2022-10-05T05:32:36.827Z,101275.53
2022-10-05T05:35:04.318Z,101262.75
2022-10-05T05:37:30.711Z,101272.59
2022-10-05T05:40:07.754Z,101273.72
2022-10-05T05:42:39.384Z,101272.09
2022-10-05T05:45:38.522Z,101282.06
2022-10-05T05:48:12.816Z,101281.22
2022-10-05T05:50:49.463Z,101276.00
2022-10-05T05:53:19.615Z,101273.09
2022-10-05T05:55:51.754Z,101274.91
2022-10-05T05:58:31.910Z,101278.50
2022-10-05T06:01:02.715Z,101278.00
2022-10-05T06:03:32.118Z,101269.34
2022-10-05T06:06:01.499Z,101267.56
2022-10-05T06:08:34.231Z,101282.28
2022-10-05T06:11:11.513Z,101279.50
2022-10-05T06:13:40.140Z,101274.28
2022-10-05T06:16:12.775Z,101272.47
2022-10-05T06:18:41.661Z,101269.53
2022-10-05T06:21:18.516Z,101276.91
2022-10-05T06:23:53.905Z,101282.81
2022-10-05T06:26:29.418Z,101283.31
2022-10-05T06:28:59.065Z,101280.53
2022-10-05T06:31:25.528Z,101279.59
2022-10-05T06:34:01.823Z,101279.91
2022-10-05T06:36:38.053Z,101280.88
2022-10-05T06:39:10.251Z,101282.88
2022-10-05T06:41:46.904Z,101274.72
2022-10-05T06:44:20.031Z,101274.91
2022-10-05T06:47:03.863Z,101277.69
2022-10-05T06:49:56.196Z,101272.78
2022-10-05T06:52:50.452Z,101274.44
2022-10-05T06:55:17.505Z,101278.88
2022-10-05T06:57:44.051Z,101273.81
2022-10-05T07:00:21.552Z,101279.53
2022-10-05T07:03:13.250Z,101277.91
2022-10-05T07:05:45.673Z,101279.06
2022-10-05T07:08:15.594Z,101280.53
2022-10-05T07:10:48.179Z,101266.16
2022-10-05T07:13:33.355Z,101271.56
2022-10-05T07:15:59.886Z,101278.13
2022-10-05T07:18:29.176Z,101275.50
2022-10-05T07:21:04.729Z,101276.97
2022-10-05T07:23:34.283Z,101268.78
2022-10-05T07:26:30.155Z,101267.97
2022-10-05T07:28:56.787Z,101272.72
2022-10-05T07:31:33.969Z,101272.56
2022-10-05T07:34:01.172Z,101276.84
2022-10-05T07:36:49.699Z,101277.66
2022-10-05T07:39:36.750Z,101275.22
2022-10-05T07:42:19.753Z,101278.00
2022-10-05T07:44:53.754Z,101274.56
2022-10-05T07:47:34.678Z,101270.31
2022-10-05T07:50:20.018Z,101269.03
2022-10-05T07:52:50.288Z,101277.34
2022-10-05T07:55:22.239Z,101271.81
2022-10-05T07:57:50.080Z,101271.16
2022-10-05T08:00:21.006Z,101266.56
2022-10-05T08:02:52.234Z,101265.13
2022-10-05T08:05:40.495Z,101265.63
2022-10-05T08:08:21.494Z,101261.69
2022-10-05T08:11:00.174Z,101260.38
2022-10-05T08:13:39.087Z,101263.13
2022-10-05T08:16:12.524Z,101263.13
2022-10-05T08:18:57.904Z,101266.75
2022-10-05T08:21:39.949Z,101261.47
2022-10-05T08:24:10.961Z,101269.00
2022-10-05T08:26:46.453Z,101262.25
2022-10-05T08:29:19.882Z,101270.75
2022-10-05T08:31:49.733Z,101263.84
2022-10-05T08:34:26.329Z,101264.31
2022-10-05T08:37:03.583Z,101265.31
2022-10-05T08:39:31.743Z,101261.38
2022-10-05T08:42:01.138Z,101257.72
2022-10-05T08:44:42.828Z,101262.94
2022-10-05T08:47:29.469Z,101259.47
2022-10-05T08:50:05.145Z,101259.09
2022-10-05T08:52:41.854Z,101264.50
2022-10-05T08:55:20.316Z,101259.53
2022-10-05T08:58:05.996Z,101257.44
2022-10-05T09:00:44.631Z,101255.28
2022-10-05T09:03:34.309Z,101255.56
2022-10-05T09:06:00.965Z,101258.19
2022-10-05T09:08:42.778Z,101255.72
2022-10-05T09:11:26.251Z,101257.22
2022-10-05T09:13:58.545Z,101255.59
2022-10-05T09:16:35.573Z,101254.38
2022-10-05T09:19:22.686Z,101253.47
2022-10-05T09:21:56.498Z,101242.97
2022-10-05T09:24:26.601Z,101244.47
2022-10-05T09:27:08.417Z,101241.75
2022-10-05T09:29:53.838Z,101241.72
2022-10-05T09:32:32.521Z,101243.38
2022-10-05T09:35:07.743Z,101252.38
2022-10-05T09:37:53.486Z,101243.50
2022-10-05T09:40:28.898Z,101248.28
2022-10-05T09:43:07.564Z,101242.03
2022-10-05T09:45:53.324Z,101240.34
2022-10-05T09:48:25.894Z,101246.34
2022-10-05T09:51:01.574Z,101244.53
2022-10-05T09:53:38.375Z,101239.91
2022-10-05T09:56:23.164Z,101241.72
2022-10-05T09:59:08.291Z,101244.97
2022-10-05T10:01:57.509Z,101240.81
2022-10-05T10:04:30.511Z,101240.00
2022-10-05T10:07:04.901Z,101232.88
2022-10-05T10:09:40.621Z,101235.31
2022-10-05T10:12:06.968Z,101237.84
2022-10-05T10:14:39.263Z,101238.25
2022-10-05T10:17:12.913Z,101240.06
2022-10-05T10:19:59.551Z,101243.16
2022-10-05T10:22:44.440Z,101233.19
2022-10-05T10:25:19.546Z,101235.28
2022-10-05T10:27:54.286Z,101239.06
2022-10-05T10:30:35.742Z,101243.97
2022-10-05T10:33:35.328Z,101235.72
2022-10-05T10:36:06.984Z,101229.91
2022-10-05T10:38:39.927Z,101236.88
2022-10-05T10:41:25.173Z,101239.56
2022-10-05T10:43:51.611Z,101235.47
2022-10-05T10:46:28.606Z,101231.84
2022-10-05T10:49:15.693Z,101220.28
2022-10-05T10:51:44.984Z,101227.22
2022-10-05T10:54:49.651Z,101224.41
2022-10-05T10:57:15.980Z,101206.25
2022-10-05T11:00:00.821Z,101202.47
2022-10-05T11:02:39.324Z,101200.19
2022-10-05T11:05:05.741Z,101197.22
2022-10-05T11:07:38.132Z,101186.91
2022-10-05T11:10:18.119Z,101185.28
2022-10-05T11:12:57.931Z,101175.31
2022-10-05T11:15:44.447Z,101166.00
2022-10-05T11:18:27.833Z,101169.09
2022-10-05T11:21:00.081Z,101162.63
2022-10-05T11:23:45.180Z,101160.38
2022-10-05T11:26:33.323Z,101155.75
2022-10-05T11:28:59.677Z,101161.75
2022-10-05T11:31:35.289Z,101153.03
2022-10-05T11:34:20.427Z,101154.06
2022-10-05T11:36:58.907Z,101138.69
2022-10-05T11:39:44.699Z,101130.56
2022-10-05T11:42:29.578Z,101123.69
2022-10-05T11:45:11.548Z,101117.78
2022-10-05T11:47:45.840Z,101118.00
2022-10-05T11:50:24.377Z,101111.91
2022-10-05T11:53:02.185Z,101109.88
2022-10-05T11:55:37.128Z,101095.66
2022-10-05T11:58:35.924Z,101103.41
2022-10-05T12:01:05.202Z,101095.28
2022-10-05T12:03:40.454Z,101100.78
2022-10-05T12:06:14.168Z,101090.41
2022-10-05T12:08:43.347Z,101093.69
2022-10-05T12:11:28.417Z,101086.34
2022-10-05T12:14:00.558Z,101080.91
2022-10-05T12:16:27.511Z,101073.56
2022-10-05T12:19:08.921Z,101066.03
2022-10-05T12:21:44.158Z,101054.66
2022-10-05T12:24:13.585Z,101050.97
2022-10-05T12:26:47.254Z,101050.16
2022-10-05T12:29:24.592Z,101038.34
2022-10-05T12:32:08.112Z,101039.16
2022-10-05T12:34:40.490Z,101033.84
2022-10-05T12:37:32.017Z,101026.13
2022-10-05T12:40:18.845Z,101028.06
2022-10-05T12:42:45.939Z,101024.22
2022-10-05T12:45:28.338Z,101022.75
2022-10-05T12:48:03.782Z,101010.50
2022-10-05T12:50:30.554Z,101012.53
2022-10-05T12:53:13.330Z,101003.63
2022-10-05T12:55:49.104Z,100998.41
2022-10-05T12:58:27.090Z,100995.03
2022-10-05T13:01:16.755Z,100992.28
2022-10-05T13:03:50.773Z,100988.97
2022-10-05T13:06:26.239Z,100986.69
2022-10-05T13:09:13.308Z,100986.16
2022-10-05T13:11:46.680Z,100966.03
2022-10-05T13:14:23.077Z,100967.88
2022-10-05T13:17:06.898Z,100960.34
2022-10-05T13:19:39.243Z,100957.53
2022-10-05T13:22:17.810Z,100950.56
2022-10-05T13:24:45.358Z,100950.28
2022-10-05T13:27:23.467Z,100951.44
2022-10-05T13:29:54.537Z,100944.72
2022-10-05T13:32:25.396Z,100940.03
2022-10-05T13:34:52.416Z,100936.94
2022-10-05T13:37:24.763Z,100933.78
2022-10-05T13:39:59.080Z,100932.84
2022-10-05T13:42:32.758Z,100935.34
2022-10-05T13:45:02.273Z,100937.56
2022-10-05T13:47:39.578Z,100931.16
2022-10-05T13:50:14.045Z,100929.66
2022-10-05T13:52:51.761Z,100939.28
2022-10-05T13:55:27.917Z,100930.69
2022-10-05T13:58:05.641Z,100922.59
2022-10-05T14:00:34.031Z,100927.06
2022-10-05T14:03:03.681Z,100932.56
2022-10-05T14:05:30.950Z,100929.19
2022-10-05T14:08:08.900Z,100934.72
2022-10-05T14:10:35.277Z,100927.00
2022-10-05T14:13:09.083Z,100927.53
2022-10-05T14:15:41.276Z,100936.41
2022-10-05T14:18:24.851Z,100927.28
2022-10-05T14:20:58.308Z,100917.81
2022-10-05T14:23:25.634Z,100921.41
2022-10-05T14:25:55.043Z,100928.56
2022-10-05T14:28:23.928Z,100924.81
2022-10-05T14:31:01.094Z,100923.25
2022-10-05T14:33:28.732Z,100930.16
2022-10-05T14:35:56.522Z,100931.13
2022-10-05T14:38:55.415Z,100939.13
2022-10-05T14:41:25.301Z,100938.25
2022-10-05T14:43:55.870Z,100941.50
2022-10-05T14:46:28.397Z,100941.66
2022-10-05T14:49:10.424Z,100941.72
2022-10-05T14:51:38.171Z,100949.50
2022-10-05T14:54:23.179Z,100942.88
2022-10-05T14:56:52.054Z,100946.69
2022-10-05T14:59:40.118Z,100948.66
2022-10-05T15:02:23.123Z,100950.59
2022-10-05T15:05:01.061Z,100956.69
2022-10-05T15:07:27.398Z,100949.88
2022-10-05T15:10:03.477Z,100966.19
2022-10-05T15:12:48.144Z,100958.69
2022-10-05T15:15:14.750Z,100968.16
2022-10-05T15:17:52.418Z,100969.81
2022-10-05T15:20:29.021Z,100972.47
2022-10-05T15:23:13.843Z,100961.03
2022-10-05T15:26:03.174Z,100960.66
2022-10-05T15:28:36.149Z,100968.00
2022-10-05T15:31:11.278Z,100964.19
2022-10-05T15:33:46.239Z,100968.16
2022-10-05T15:36:19.295Z,100975.06
2022-10-05T15:38:49.873Z,100983.28
2022-10-05T15:41:19.902Z,100986.56
2022-10-05T15:43:58.438Z,100986.34
2022-10-05T15:46:24.902Z,100991.88
2022-10-05T15:48:51.316Z,101003.94
2022-10-05T15:51:24.608Z,101008.53
2022-10-05T15:54:22.613Z,101018.94
2022-10-05T15:56:59.327Z,101017.31
2022-10-05T15:59:33.236Z,101028.53
2022-10-05T16:02:03.744Z,101027.72
2022-10-05T16:04:38.880Z,101038.50
2022-10-05T16:07:28.746Z,101048.69
2022-10-05T16:10:03.968Z,101053.63
2022-10-05T16:12:36.544Z,101057.69
2022-10-05T16:15:17.544Z,101054.06
2022-10-05T16:17:44.912Z,101052.84
2022-10-05T16:20:30.174Z,101067.09
2022-10-05T16:23:02.525Z,101068.34
2022-10-05T16:25:44.607Z,101078.53
2022-10-05T16:28:10.971Z,101073.03
2022-10-05T16:30:58.754Z,101080.41
2022-10-05T16:33:36.167Z,101083.84
2022-10-05T16:36:18.033Z,101096.66
2022-10-05T16:39:01.336Z,101090.56
2022-10-05T16:41:46.214Z,101109.47
2022-10-05T16:44:15.317Z,101106.25
2022-10-05T16:46:41.699Z,101105.03
2022-10-05T16:49:20.417Z,101126.38
2022-10-05T16:51:50.584Z,101133.28
2022-10-05T16:54:19.336Z,101143.22
2022-10-05T16:56:54.834Z,101153.34
2022-10-05T16:59:40.014Z,101145.00
2022-10-05T17:02:09.471Z,101148.44
2022-10-05T17:04:44.765Z,101159.81
2022-10-05T17:07:32.761Z,101165.28
2022-10-05T17:10:28.494Z,101167.50
2022-10-05T17:13:01.166Z,101174.81
2022-10-05T17:15:39.550Z,101185.97
2022-10-05T17:18:05.945Z,101190.03
2022-10-05T17:20:42.948Z,101196.91
2022-10-05T17:23:53.467Z,101198.50
2022-10-05T17:26:22.931Z,101210.78
2022-10-05T17:28:52.304Z,101205.91
2022-10-05T17:31:21.591Z,101216.66
2022-10-05T17:34:00.310Z,101213.16
2022-10-05T17:36:47.453Z,101212.06
2022-10-05T17:39:15.832Z,101218.81
2022-10-05T17:41:42.995Z,101221.56
2022-10-05T17:44:21.356Z,101226.97
2022-10-05T17:46:48.359Z,101235.00
2022-10-05T17:49:20.985Z,101241.88
2022-10-05T17:52:06.004Z,101246.81
2022-10-05T17:55:10.949Z,101244.53
2022-10-05T17:57:37.578Z,101253.03
2022-10-05T18:00:05.218Z,101258.47
2022-10-05T18:02:40.658Z,101248.13
2022-10-05T18:05:14.430Z,101259.31
2022-10-05T18:07:48.093Z,101253.97
2022-10-05T18:10:27.688Z,101255.22
2022-10-05T18:12:57.063Z,101243.22
2022-10-05T18:15:24.009Z,101250.31
2022-10-05T18:17:57.216Z,101244.00
2022-10-05T18:20:26.917Z,101245.78
2022-10-05T18:23:13.411Z,101250.06
2022-10-05T18:25:42.781Z,101242.16
2022-10-05T18:28:21.434Z,101242.16
2022-10-05T18:30:59.865Z,101256.16
2022-10-05T18:33:37.125Z,101257.34
2022-10-05T18:36:06.387Z,101255.34
2022-10-05T18:38:40.286Z,101256.53
2022-10-05T18:41:12.905Z,101256.72
2022-10-05T18:43:42.464Z,101259.94
2022-10-05T18:46:21.850Z,101257.94
2022-10-05T18:48:48.285Z,101260.56
2022-10-05T18:51:21.394Z,101250.84
2022-10-05T18:53:50.725Z,101258.91
2022-10-05T18:56:31.983Z,101258.69
2022-10-05T18:59:04.526Z,101263.31
2022-10-05T19:01:43.066Z,101257.84
2022-10-05T19:04:27.907Z,101256.06
2022-10-05T19:06:59.563Z,101256.06
2022-10-05T19:09:40.944Z,101263.78
2022-10-05T19:12:25.757Z,101261.13
2022-10-05T19:15:02.898Z,101260.69
2022-10-05T19:17:48.128Z,101259.13
2022-10-05T19:20:20.568Z,101268.66
2022-10-05T19:23:08.260Z,101274.09
2022-10-05T19:25:40.889Z,101275.13
2022-10-05T19:28:17.616Z,101286.47
2022-10-05T19:30:50.541Z,101283.84
2022-10-05T19:33:26.094Z,101284.84
2022-10-05T19:36:04.601Z,101285.84
2022-10-05T19:38:43.125Z,101275.31
2022-10-05T19:41:15.815Z,101281.75
2022-10-05T19:43:42.185Z,101282.16
2022-10-05T19:46:21.297Z,101282.41
2022-10-05T19:48:48.865Z,101286.84
2022-10-05T19:51:28.658Z,101288.03
2022-10-05T19:54:00.654Z,101278.31
2022-10-05T19:56:30.888Z,101283.38
2022-10-05T19:58:59.492Z,101283.44
2022-10-05T20:01:36.874Z,101289.91
2022-10-05T20:04:04.998Z,101300.09
2022-10-05T20:06:31.414Z,101292.75
2022-10-05T20:09:00.179Z,101294.75
2022-10-05T20:11:31.420Z,101293.72
2022-10-05T20:13:59.577Z,101301.03
2022-10-05T20:19:51.481Z,101302.22
2022-10-05T20:22:34.936Z,101301.97
2022-10-05T20:25:21.577Z,101326.13
2022-10-05T20:27:52.523Z,101323.56
2022-10-05T20:30:23.170Z,101313.44
2022-10-05T20:32:50.168Z,101317.03
2022-10-05T20:35:17.392Z,101324.16
2022-10-05T20:37:44.084Z,101336.34
2022-10-05T20:40:12.060Z,101342.47
2022-10-05T20:42:38.524Z,101349.63
2022-10-05T20:45:06.220Z,101355.09
2022-10-05T20:47:33.654Z,101360.41
2022-10-05T20:50:01.052Z,101361.41
2022-10-05T20:52:27.408Z,101365.88
2022-10-05T20:54:56.554Z,101371.41
2022-10-05T20:57:24.163Z,101368.38
2022-10-05T20:59:51.342Z,101365.50
2022-10-05T21:02:18.949Z,101373.53
2022-10-05T21:04:47.527Z,101377.44
2022-10-05T21:07:15.314Z,101375.03
2022-10-05T21:09:43.473Z,101384.72
2022-10-05T21:12:10.437Z,101386.66
2022-10-05T21:14:37.674Z,101398.44
2022-10-05T21:17:07.739Z,101399.06
2022-10-05T21:19:40.258Z,101402.06
2022-10-05T21:22:07.609Z,101397.81
2022-10-05T21:24:37.748Z,101407.47
2022-10-05T21:27:04.309Z,101394.72
2022-10-05T21:29:31.062Z,101411.75
2022-10-05T21:31:57.478Z,101411.59
2022-10-05T21:34:23.894Z,101420.47
2022-10-05T21:36:50.736Z,101411.34
2022-10-05T21:39:17.223Z,101417.56
2022-10-05T21:41:43.593Z,101417.97
2022-10-05T21:44:09.940Z,101420.72
2022-10-05T21:46:37.487Z,101434.78
2022-10-05T21:49:05.503Z,101445.44
2022-10-05T21:51:33.456Z,101462.53
2022-10-05T21:54:04.460Z,101489.59
2022-10-05T21:56:34.700Z,101485.41
2022-10-05T21:59:01.891Z,101494.63
2022-10-05T22:01:29.031Z,101505.69
2022-10-05T22:03:56.837Z,101504.16
2022-10-05T22:06:23.184Z,101502.53
2022-10-05T22:08:49.548Z,101500.50
2022-10-05T22:11:17.305Z,101509.31
2022-10-05T22:13:43.662Z,101516.66
2022-10-05T22:16:10.576Z,101516.63
2022-10-05T22:18:37.472Z,101514.88
2022-10-05T22:21:04.637Z,101528.84
2022-10-05T22:23:31.021Z,101537.13
2022-10-05T22:25:57.457Z,101542.50
2022-10-05T22:28:23.882Z,101543.44
2022-10-05T22:30:50.347Z,101558.81
2022-10-05T22:33:16.704Z,101556.59
2022-10-05T22:35:43.223Z,101564.78
2022-10-05T22:38:09.624Z,101578.50
2022-10-05T22:40:36.505Z,101569.88
2022-10-05T22:43:02.864Z,101582.59
2022-10-05T22:45:32.383Z,101587.41
2022-10-05T22:47:59.092Z,101588.38
2022-10-05T22:50:25.484Z,101597.28
2022-10-05T22:52:54.568Z,101599.53
2022-10-05T22:55:21.105Z,101597.28
2022-10-05T22:57:49.270Z,101604.16
2022-10-05T23:00:16.141Z,101604.31
2022-10-05T23:02:43.136Z,101602.34
2022-10-05T23:05:10.613Z,101616.50
2022-10-05T23:07:41.805Z,101619.41
2022-10-05T23:10:09.257Z,101634.53
2022-10-05T23:12:35.656Z,101690.66
2022-10-05T23:15:02.080Z,101703.81
2022-10-05T23:17:30.196Z,101717.09
2022-10-05T23:19:56.718Z,101719.41
2022-10-05T23:22:24.752Z,101724.88
2022-10-05T23:24:51.408Z,101723.63
2022-10-05T23:27:17.785Z,101735.03
2022-10-05T23:29:44.164Z,101741.47
2022-10-05T23:32:10.510Z,101747.66
2022-10-05T23:34:36.880Z,101744.13
2022-10-05T23:37:03.755Z,101740.78
2022-10-05T23:39:30.243Z,101744.22
2022-10-05T23:41:56.594Z,101737.25
2022-10-05T23:44:23.041Z,101739.75
2022-10-05T23:46:49.396Z,101742.06
2022-10-05T23:49:15.776Z,101740.41
2022-10-05T23:51:42.449Z,101742.22
2022-10-05T23:54:08.919Z,101745.97
2022-10-05T23:56:35.268Z,101754.34
2022-10-05T23:59:01.707Z,101760.59
